Austin, Texas
Current Conditions -  °F | °C
As of 11:51 AM on Friday 28 Nov 2014 (Local Time) from KATT Reporting Station
Clear Clear  
Wind Chill: 67°   Ceiling: Unl
Heat Index: 67°   Visibility: 10mi
Dew Point: 53°   Wind: 9mph
Humidity: 61%   Direction: 210°SSW
Pressure: 30.25"   Gusts: 17mph
Location:  30.27°N, 97.74°W
Report Text: KATT 281751Z AUTO 21008G15KT 170V240 10SM CLR 19/12 A3025 RMK AO2 SLP242 T01940117 10194 20061 58023
Loading
Personal Weather Stations






























Interactive Weather Map New forecast layout! Learn more

10-Day Weather Forecast

Advertisements
Track Severe Weather on mobile